EDT,Max TemperatureF,Mean TemperatureF,Min TemperatureF,Max Dew PointF,MeanDew PointF,Min DewpointF,Max Humidity, Mean Humidity, Min Humidity, Max Sea Level PressureIn, Mean Sea Level PressureIn, Min Sea Level PressureIn, Max VisibilityMiles, Mean VisibilityMiles, Min VisibilityMiles, Max Wind SpeedMPH, Mean Wind SpeedMPH, Max Gust SpeedMPH,PrecipitationIn, CloudCover, Events, WindDirDegrees
2014-3-1,32,21,10,18,7,-4,63,51,39,30.37,30.27,30.13,10,10,10,15,6,21,0.00,3,,111
2014-3-2,34,28,22,25,18,9,85,66,47,30.15,30.10,30.06,10,8,2,14,5,17,T,8,Snow,315
2014-3-3,23,16,9,3,-3,-6,58,46,33,30.40,30.29,30.14,10,10,10,16,7,23,0.00,2,,329
2014-3-4,27,15,3,6,1,-3,83,58,32,30.45,30.34,30.23,10,10,10,8,2,10,0.00,5,,85
2014-3-5,34,24,14,11,8,4,67,48,29,30.55,30.33,30.20,10,10,10,17,6,26,0.00,5,,321
2014-3-6,30,19,7,7,4,2,80,59,37,30.64,30.54,30.41,10,10,10,15,5,25,0.00,0,,133
2014-3-7,41,30,18,23,16,5,81,63,45,30.40,30.19,29.97,10,10,10,16,4,22,0.00,2,,88
2014-3-8,48,35,21,33,27,18,92,73,53,29.97,29.94,29.88,10,8,5,17,4,23,T,5,Rain,291
2014-3-9,41,35,29,30,17,10,82,56,30,30.12,30.02,29.92,10,10,6,17,9,26,0.00,3,,288
2014-3-10,56,44,31,33,27,20,82,62,41,29.92,29.74,29.59,10,10,9,14,3,18,0.00,5,,163
2014-3-11,65,47,29,38,31,27,92,62,31,29.71,29.64,29.59,10,8,3,12,2,,T,3,,270
2014-3-12,45,32,18,41,31,6,96,76,56,29.64,29.36,29.08,10,8,3,29,8,41,0.70,8,Rain-Snow,321
2014-3-13,28,21,14,5,0,-6,64,41,15,30.13,29.86,29.58,10,10,10,23,16,38,0.00,4,Snow,298
2014-3-14,50,33,16,21,14,4,67,48,29,30.14,29.99,29.75,10,10,10,31,11,41,0.00,4,,114
2014-3-15,54,44,33,32,25,18,89,62,35,30.09,29.86,29.69,10,10,10,26,13,34,0.01,5,,294
2014-3-16,32,27,22,16,7,2,55,44,32,30.27,30.21,30.11,10,10,10,18,8,22,0.00,4,,348
2014-3-17,36,27,18,10,1,-3,49,36,22,30.16,30.09,30.02,10,10,10,13,5,16,0.00,4,,48
2014-3-18,45,36,26,16,8,2,47,33,18,30.24,30.18,30.08,10,10,10,17,8,21,0.00,5,,102
2014-3-19,40,38,35,36,28,6,92,60,27,30.20,30.03,29.81,10,5,2,20,10,26,T,8,Rain,96
2014-3-20,47,42,36,37,32,20,100,72,43,29.97,29.81,29.74,10,5,0,29,12,39,0.02,8,Fog-Rain,265
2014-3-21,53,42,30,24,18,11,58,39,20,30.04,30.00,29.97,10,10,10,17,7,28,0.00,3,,289
2014-3-22,59,45,31,32,24,18,69,48,26,30.08,29.89,29.76,10,10,10,29,11,38,0.00,2,,289
2014-3-23,40,31,21,23,13,4,69,47,25,30.26,30.11,30.05,10,10,9,16,9,26,T,3,Snow,327
2014-3-24,33,25,17,9,3,0,61,43,25,30.31,30.23,30.14,10,10,10,15,8,20,0.00,2,,295
2014-3-25,36,28,19,23,15,7,88,62,36,30.14,30.01,29.90,10,9,4,15,5,20,T,4,Snow,130
2014-3-26,33,26,19,24,9,-3,81,52,23,30.31,30.06,29.90,10,8,1,25,13,34,T,4,Snow,302
2014-3-27,44,29,13,18,10,3,73,50,27,30.41,30.30,30.13,10,10,10,18,6,28,T,4,,53
2014-3-28,59,48,36,49,38,19,93,69,44,30.14,30.00,29.89,10,6,0,17,9,31,0.38,6,Fog-Rain,58
2014-3-29,47,39,31,44,38,30,100,86,71,30.18,29.99,29.70,10,3,0,13,2,17,1.72,6,Fog-Rain,298
2014-3-30,41,39,36,38,31,28,86,75,64,29.92,29.77,29.69,10,10,10,26,13,36,0.06,8,Rain,312
2014-3-31,60,49,37,28,27,25,64,45,25,30.18,30.05,29.93,10,10,10,22,12,31,0.00,3,,327